Time;durP1;ratioP1;P1;durP2;ratioP2;P2;SDS_P1;SDS_P2;PMS_P1;PMS_P2;Temp;Humidity;BMP_temperature;BMP_pressure;BME280_temperature;BME280_humidity;BME280_pressure;Samples;Min_cycle;Max_cycle;Signal;HPM_P1;HPM_P2
2022/05/09 00:01:29;;;;;;;10.30;4.20;;;;;;;9.38;60.37;100878.27;213749;1274;142147;-66
2022/05/09 00:06:33;;;;;;;9.40;2.60;;;;;;;9.29;60.43;100883.59;214983;1274;140656;-67
2022/05/09 00:11:36;;;;;;;4.30;3.20;;;;;;;9.21;60.61;100888.14;214070;1274;140150;-66
2022/05/09 00:16:40;;;;;;;4.10;2.60;;;;;;;9.14;60.84;100889.69;214762;1274;139783;-66
2022/05/09 00:21:44;;;;;;;6.00;3.00;;;;;;;9.07;60.90;100890.91;213415;1274;140584;-66
2022/05/09 00:26:49;;;;;;;5.20;3.00;;;;;;;8.99;60.76;100894.78;213698;1274;139783;-67
2022/05/09 00:31:56;;;;;;;9.10;3.70;;;;;;;8.94;61.18;100897.28;215212;1274;140805;-66
2022/05/09 00:37:00;;;;;;;13.40;4.00;;;;;;;8.90;61.53;100899.05;213644;1274;141529;-66
2022/05/09 00:42:11;;;;;;;15.00;5.30;;;;;;;8.85;61.34;100898.48;216101;1274;140695;-66
2022/05/09 00:47:14;;;;;;;8.00;4.20;;;;;;;8.80;61.63;100903.27;215532;1274;140674;-67
2022/05/09 00:52:39;;;;;;;5.70;2.80;;;;;;;8.74;61.91;100907.07;215932;1274;140698;-67
2022/05/09 00:57:50;;;;;;;6.70;4.10;;;;;;;8.69;61.88;100908.29;216192;1274;140979;-67
2022/05/09 01:03:01;;;;;;;12.60;4.50;;;;;;;8.61;62.31;100912.41;215739;1274;142102;-68
2022/05/09 01:08:05;;;;;;;6.90;3.10;;;;;;;8.53;62.06;100913.46;215467;1274;141718;-67
2022/05/09 01:13:12;;;;;;;11.90;4.20;;;;;;;8.44;62.50;100919.73;213958;1274;140395;-67
2022/05/09 01:18:16;;;;;;;5.30;3.60;;;;;;;8.35;62.71;100918.77;214469;1274;143406;-67
2022/05/09 01:23:20;;;;;;;10.40;4.20;;;;;;;8.23;63.02;100923.27;214618;1274;141241;-66
2022/05/09 01:28:24;;;;;;;5.40;3.80;;;;;;;8.15;63.10;100928.34;213313;1274;142931;-66
2022/05/09 01:33:39;;;;;;;4.30;3.70;;;;;;;8.02;63.11;100926.89;214558;1273;141011;-67
2022/05/09 01:38:44;;;;;;;7.10;4.20;;;;;;;7.86;63.64;100923.39;213349;1274;142382;-67
2022/05/09 01:43:50;;;;;;;6.50;4.00;;;;;;;7.73;63.85;100925.32;213590;1274;141704;-66
2022/05/09 01:54:16;;;;;;;5.90;4.00;;;;;;;7.42;64.28;100927.85;213894;1273;142275;-69
2022/05/09 01:59:20;;;;;;;4.20;3.50;;;;;;;7.22;64.73;100933.39;214214;1274;142176;-66
2022/05/09 02:04:23;;;;;;;5.80;4.10;;;;;;;7.09;64.84;100940.70;214601;1274;142495;-69
2022/05/09 02:09:26;;;;;;;4.20;3.80;;;;;;;7.04;65.13;100941.82;215179;1274;140939;-65
2022/05/09 02:14:28;;;;;;;7.50;3.80;;;;;;;7.03;65.19;100945.85;214584;1274;141061;-68
2022/05/09 02:19:32;;;;;;;7.30;4.40;;;;;;;6.93;65.50;100940.70;214931;1274;140618;-65
2022/05/09 02:24:35;;;;;;;7.30;4.20;;;;;;;6.88;65.73;100944.52;214497;1272;142072;-65
2022/05/09 02:29:39;;;;;;;6.30;3.80;;;;;;;6.87;66.08;100949.39;215094;1274;142674;-68
2022/05/09 02:34:43;;;;;;;7.70;5.20;;;;;;;6.86;66.64;100948.81;214324;1274;140264;-66
2022/05/09 02:39:46;;;;;;;8.00;4.60;;;;;;;6.80;66.06;100945.55;216082;1274;140461;-67
2022/05/09 02:44:50;;;;;;;5.00;4.00;;;;;;;6.70;66.12;100948.83;216099;1274;141724;-66
2022/05/09 02:49:53;;;;;;;4.90;4.40;;;;;;;6.61;66.30;100951.38;215578;1274;141149;-66
2022/05/09 02:54:57;;;;;;;5.50;3.90;;;;;;;6.48;66.70;100961.77;215881;1272;140955;-67
2022/05/09 03:00:00;;;;;;;6.20;3.90;;;;;;;6.37;66.70;100966.17;214280;1274;144511;-66
2022/05/09 03:05:04;;;;;;;10.40;4.40;;;;;;;6.29;66.59;100970.99;215085;1274;141506;-67
2022/05/09 03:10:07;;;;;;;7.50;4.40;;;;;;;6.21;67.10;100977.39;214095;1274;141420;-67
2022/05/09 03:15:09;;;;;;;5.30;4.80;;;;;;;6.20;67.44;100980.71;214973;1274;141543;-67
2022/05/09 03:20:12;;;;;;;7.90;4.50;;;;;;;6.24;67.86;100985.69;214367;1275;140302;-66
2022/05/09 03:25:16;;;;;;;6.70;4.50;;;;;;;6.35;68.09;100992.05;213979;1275;140965;-67
2022/05/09 03:30:22;;;;;;;7.00;5.10;;;;;;;6.50;68.27;100991.55;214026;1274;140334;-65
2022/05/09 03:35:26;;;;;;;8.60;3.80;;;;;;;6.62;68.55;100998.05;213072;1275;140584;-65
2022/05/09 03:40:28;;;;;;;12.00;5.60;;;;;;;6.98;68.28;101001.44;213652;1276;141446;-66
2022/05/09 03:45:31;;;;;;;8.00;5.40;;;;;;;7.34;68.07;101003.11;214057;1274;141208;-67
2022/05/09 03:50:35;;;;;;;8.90;5.70;;;;;;;7.74;67.97;101011.81;214833;1274;140565;-65
2022/05/09 03:55:38;;;;;;;7.20;5.10;;;;;;;7.95;67.51;101015.25;213464;1274;140999;-65
2022/05/09 04:00:41;;;;;;;5.50;4.30;;;;;;;8.13;67.77;101013.18;213627;1274;140718;-67
2022/05/09 04:05:45;;;;;;;4.50;3.90;;;;;;;8.69;67.49;101017.36;214664;1274;142686;-66
2022/05/09 04:10:51;;;;;;;4.50;3.70;;;;;;;10.00;66.48;101008.54;213602;1274;142170;-66
2022/05/09 04:21:15;;;;;;;4.70;4.20;;;;;;;13.62;62.20;101005.77;214674;1276;143264;-68
2022/05/09 04:26:17;;;;;;;9.70;4.00;;;;;;;13.74;60.79;101008.20;214690;1274;140408;-71
2022/05/09 04:31:22;;;;;;;10.90;3.60;;;;;;;13.51;59.87;101015.89;214883;1274;140408;-67
2022/05/09 04:36:26;;;;;;;9.20;4.00;;;;;;;13.58;59.16;101023.03;215531;1274;141368;-66
2022/05/09 04:41:30;;;;;;;6.90;3.70;;;;;;;13.28;59.10;101026.59;215656;1274;140574;-67
2022/05/09 04:46:33;;;;;;;8.90;3.80;;;;;;;13.23;58.68;101029.11;214873;1274;139779;-67
2022/05/09 04:51:36;;;;;;;4.90;4.20;;;;;;;12.94;58.37;101036.99;214968;1274;141342;-66
2022/05/09 04:56:39;;;;;;;10.50;3.80;;;;;;;12.48;58.56;101041.36;214536;1274;141271;-66
2022/05/09 05:01:42;;;;;;;5.70;3.40;;;;;;;12.08;58.72;101045.29;214350;1274;141023;-66
2022/05/09 05:06:45;;;;;;;6.10;3.80;;;;;;;11.74;58.91;101044.82;214114;1274;141277;-65
2022/05/09 05:11:49;;;;;;;11.70;4.90;;;;;;;11.71;58.95;101051.17;213829;1274;141347;-66
2022/05/09 05:17:01;;;;;;;9.50;4.60;;;;;;;13.45;57.15;101047.72;213928;1274;140217;-66
2022/05/09 05:22:05;;;;;;;5.00;4.20;;;;;;;17.94;53.38;101045.20;214598;1274;142509;-65
2022/05/09 05:27:08;;;;;;;5.90;4.80;;;;;;;21.47;49.82;101047.02;214858;1274;140429;-66
2022/05/09 05:32:20;;;;;;;7.10;4.00;;;;;;;24.21;46.51;101049.73;214534;1274;140742;-65
2022/05/09 05:37:23;;;;;;;7.60;4.50;;;;;;;26.37;43.25;101062.13;213209;1274;139774;-64
2022/05/09 05:42:28;;;;;;;3.50;3.20;;;;;;;27.94;40.02;101074.70;213857;1275;140494;-65
2022/05/09 05:47:30;;;;;;;4.40;3.00;;;;;;;28.39;37.73;101079.77;214768;1274;140297;-63
2022/05/09 05:52:33;;;;;;;9.30;3.50;;;;;;;27.40;36.74;101081.93;213696;1274;140670;-64
2022/05/09 05:57:39;;;;;;;3.40;3.00;;;;;;;27.30;35.70;101079.99;214882;1274;140218;-63
2022/05/09 06:02:44;;;;;;;5.30;3.50;;;;;;;26.66;35.72;101086.98;214453;1274;139881;-63
2022/05/09 06:07:55;;;;;;;3.50;3.20;;;;;;;24.41;36.17;101090.98;213406;1274;140398;-62
2022/05/09 06:13:02;;;;;;;5.20;4.00;;;;;;;22.60;36.85;101096.30;213762;1274;140655;-64
2022/05/09 06:18:08;;;;;;;5.50;4.30;;;;;;;21.91;37.09;101099.23;214588;1274;140742;-64
2022/05/09 06:23:16;;;;;;;3.90;3.60;;;;;;;21.06;37.75;101099.55;213769;1274;139897;-64
2022/05/09 06:28:22;;;;;;;6.80;3.20;;;;;;;19.78;38.87;101095.26;216119;1274;140338;-64
2022/05/09 06:33:26;;;;;;;4.90;3.10;;;;;;;18.79;39.73;101098.09;216223;1274;140377;-63
2022/05/09 06:38:30;;;;;;;2.70;2.50;;;;;;;17.86;40.51;101098.67;216057;1274;140154;-63
2022/05/09 06:43:33;;;;;;;5.40;3.30;;;;;;;17.20;41.45;101109.83;216061;1274;140465;-64
2022/05/09 06:48:36;;;;;;;6.60;3.70;;;;;;;16.94;42.30;101109.83;215928;1274;162242;-63
2022/05/09 06:53:39;;;;;;;4.70;2.70;;;;;;;17.41;42.34;101109.55;215235;1274;141772;-63
2022/05/09 06:58:42;;;;;;;4.20;3.10;;;;;;;18.95;41.54;101103.17;214032;1274;141248;-63
2022/05/09 07:03:47;;;;;;;3.90;3.00;;;;;;;20.81;40.58;101101.34;213533;1274;141631;-62
2022/05/09 07:08:50;;;;;;;5.80;2.90;;;;;;;22.27;39.69;101100.55;214676;1274;140160;-62
2022/05/09 07:13:52;;;;;;;3.30;3.00;;;;;;;22.88;38.92;101105.48;214503;1274;141897;-62
2022/05/09 07:18:55;;;;;;;12.00;3.60;;;;;;;23.19;38.21;101110.85;214300;1274;141394;-62
2022/05/09 07:23:59;;;;;;;4.60;3.30;;;;;;;23.08;37.42;101114.20;213614;1274;143011;-65
2022/05/09 07:29:05;;;;;;;5.40;3.00;;;;;;;22.65;37.14;101118.56;214689;1274;139721;-65
2022/05/09 07:34:09;;;;;;;4.40;3.70;;;;;;;22.42;37.85;101119.98;214036;1274;140209;-64
2022/05/09 07:39:15;;;;;;;4.50;2.80;;;;;;;22.17;37.54;101119.36;213614;1274;141557;-65
2022/05/09 07:44:19;;;;;;;4.80;3.00;;;;;;;21.98;37.83;101118.77;214700;1274;140560;-63
2022/05/09 07:49:22;;;;;;;4.30;2.80;;;;;;;21.96;38.10;101118.61;213940;1274;654008;-63
2022/05/09 07:54:25;;;;;;;3.50;3.20;;;;;;;21.60;37.74;101118.68;213416;1274;141631;-63
2022/05/09 07:59:29;;;;;;;4.00;3.00;;;;;;;21.26;37.86;101123.83;214349;1274;141106;-63
2022/05/09 08:04:31;;;;;;;3.90;2.50;;;;;;;21.08;38.17;101120.88;215125;1274;141250;-63
2022/05/09 08:09:33;;;;;;;3.60;2.90;;;;;;;20.96;38.24;101119.67;215249;1274;140607;-64
2022/05/09 08:14:37;;;;;;;5.20;2.40;;;;;;;20.99;38.67;101120.38;215757;1274;140914;-63
2022/05/09 08:19:39;;;;;;;3.20;2.80;;;;;;;20.90;38.68;101117.34;215168;1274;139741;-64
2022/05/09 08:24:42;;;;;;;3.50;3.20;;;;;;;20.53;38.44;101117.59;214405;1274;139938;-63
2022/05/09 08:29:45;;;;;;;3.40;2.30;;;;;;;20.55;38.75;101120.02;216008;1274;140186;-64
2022/05/09 08:34:51;;;;;;;2.40;2.20;;;;;;;20.61;39.06;101116.96;216045;1274;141452;-64
2022/05/09 08:39:54;;;;;;;3.30;2.70;;;;;;;20.51;38.74;101115.96;216108;1274;140550;-64
2022/05/09 08:45:17;;;;;;;6.80;2.30;;;;;;;20.47;39.15;101121.42;214467;1274;140546;-64
2022/05/09 08:50:49;;;;;;;2.80;2.40;;;;;;;20.44;38.72;101121.65;214231;1274;141286;-63
2022/05/09 08:55:54;;;;;;;6.40;3.00;;;;;;;20.62;39.49;101119.40;213610;1274;141967;-64
2022/05/09 09:01:03;;;;;;;4.20;3.10;;;;;;;20.76;39.03;101122.69;215654;1274;140598;-64
2022/05/09 09:06:27;;;;;;;4.00;2.70;;;;;;;20.59;39.03;101122.54;214122;1274;139838;-64
2022/05/09 09:11:55;;;;;;;2.30;1.90;;;;;;;20.74;38.96;101125.08;213946;1274;140810;-64
2022/05/09 09:17:30;;;;;;;7.30;2.20;;;;;;;20.80;38.55;101127.52;213901;1274;140058;-65
2022/05/09 09:22:44;;;;;;;7.10;2.90;;;;;;;20.62;38.31;101125.42;213229;1274;141386;-66
2022/05/09 09:28:13;;;;;;;7.80;2.90;;;;;;;20.59;38.77;101124.16;213876;1274;141571;-65
2022/05/09 09:33:19;;;;;;;4.80;2.50;;;;;;;20.78;38.79;101128.86;214390;1274;140386;-64
2022/05/09 09:38:40;;;;;;;7.40;2.50;;;;;;;20.85;38.61;101127.52;213499;1274;141692;-63
2022/05/09 09:43:46;;;;;;;12.30;2.40;;;;;;;21.01;38.65;101126.83;213652;1274;140596;-66
2022/05/09 09:49:09;;;;;;;4.00;3.10;;;;;;;21.04;38.23;101124.57;214436;1274;139995;-67
2022/05/09 09:54:16;;;;;;;5.40;3.10;;;;;;;20.94;38.35;101118.15;213155;1274;141583;-64
2022/05/09 09:59:32;;;;;;;4.90;2.60;;;;;;;20.90;37.81;101116.14;214079;1274;139711;-68
2022/05/09 10:04:37;;;;;;;8.80;3.10;;;;;;;20.98;38.02;101118.86;215369;1274;140958;-69
2022/05/09 10:10:00;;;;;;;6.40;2.60;;;;;;;21.01;37.74;101117.73;215147;1274;140848;-66
2022/05/09 10:15:22;;;;;;;3.00;2.60;;;;;;;20.96;37.55;101110.95;215003;1274;140395;-66
2022/05/09 10:20:32;;;;;;;6.20;2.50;;;;;;;21.02;36.90;101109.59;215026;1274;141269;-67
2022/05/09 10:25:37;;;;;;;5.10;3.20;;;;;;;21.07;37.39;101111.27;215629;1274;142175;-67
2022/05/09 10:30:46;;;;;;;3.90;2.70;;;;;;;21.15;37.22;101110.52;215924;1274;162212;-67
2022/05/09 10:35:54;;;;;;;10.70;3.10;;;;;;;21.20;37.13;101101.25;215707;1274;142015;-67
2022/05/09 10:41:05;;;;;;;7.70;2.30;;;;;;;21.12;36.59;101103.23;216040;1274;141583;-67
2022/05/09 10:46:12;;;;;;;3.30;2.50;;;;;;;21.14;36.30;101099.39;214078;1274;161643;-66
2022/05/09 10:51:25;;;;;;;3.60;2.50;;;;;;;20.75;36.37;101094.11;214940;1274;140382;-68
2022/05/09 10:57:07;;;;;;;2.30;2.20;;;;;;;20.57;36.07;101089.37;213583;1274;143460;-69
2022/05/09 11:02:37;;;;;;;5.70;2.80;;;;;;;20.68;36.31;101080.03;213703;1274;141391;-68
2022/05/09 11:07:44;;;;;;;3.40;2.70;;;;;;;20.53;36.28;101076.46;213351;1274;141343;-68
2022/05/09 11:12:59;;;;;;;3.70;2.80;;;;;;;20.69;36.39;101073.58;213338;1275;140613;-67
2022/05/09 11:18:07;;;;;;;5.50;2.90;;;;;;;20.82;35.88;101073.42;214070;1274;143711;-68
2022/05/09 11:23:37;;;;;;;3.70;2.30;;;;;;;21.03;35.55;101066.44;213486;1274;140307;-65
2022/05/09 11:28:59;;;;;;;2.30;2.10;;;;;;;21.19;35.11;101055.63;214221;1274;139680;-67
2022/05/09 11:34:09;;;;;;;3.80;2.20;;;;;;;21.20;35.11;101057.80;214023;1274;139677;-66
2022/05/09 11:39:22;;;;;;;2.70;2.50;;;;;;;21.17;35.13;101050.33;214249;1274;140237;-66
2022/05/09 11:44:49;;;;;;;3.90;2.20;;;;;;;20.94;35.09;101052.60;213679;1274;139953;-67
2022/05/09 11:50:11;;;;;;;14.90;2.40;;;;;;;21.05;34.98;101047.25;214686;1274;140380;-65
2022/05/09 11:55:19;;;;;;;2.50;1.90;;;;;;;21.12;34.37;101046.42;214828;1274;140482;-68
2022/05/09 12:00:35;;;;;;;2.30;2.10;;;;;;;21.06;34.61;101043.22;213917;1273;139440;-67
2022/05/09 12:05:39;;;;;;;5.70;2.80;;;;;;;21.04;34.63;101044.86;214895;1274;140896;-67
2022/05/09 12:10:45;;;;;;;7.70;2.70;;;;;;;21.18;34.62;101038.48;215486;1274;139665;-66
2022/05/09 12:15:48;;;;;;;;;;;;;;;21.24;33.92;101031.98;215668;1274;141197;-67
2022/05/09 12:20:53;;;;;;;3.90;2.70;;;;;;;21.16;33.76;101031.92;216521;1274;127443;-66
2022/05/09 12:26:03;;;;;;;3.30;2.60;;;;;;;21.29;33.36;101025.71;215840;1274;140460;-67
2022/05/09 12:31:30;;;;;;;7.20;2.30;;;;;;;21.18;33.18;101021.25;215916;1274;141183;-66
2022/05/09 12:36:36;;;;;;;2.00;1.80;;;;;;;21.07;33.25;101015.45;214870;1274;141381;-65
2022/05/09 12:41:45;;;;;;;6.00;2.00;;;;;;;20.63;33.15;101012.11;215526;1274;141276;-68
2022/05/09 12:46:53;;;;;;;5.70;2.10;;;;;;;20.49;33.39;101007.07;214422;1274;143719;-68
2022/05/09 12:51:57;;;;;;;3.20;2.20;;;;;;;20.68;33.34;100999.55;214574;1274;140263;-69
2022/05/09 12:57:03;;;;;;;1.80;1.60;;;;;;;20.77;32.84;100996.52;213983;1274;141937;-68
2022/05/09 13:02:06;;;;;;;5.90;2.50;;;;;;;20.70;32.80;100989.15;213159;1274;140852;-67
2022/05/09 13:07:30;;;;;;;2.90;2.20;;;;;;;20.73;32.99;100984.65;215804;1274;140569;-69
2022/05/09 13:12:43;;;;;;;2.30;1.90;;;;;;;20.86;32.90;100979.75;214324;1274;140736;-67
2022/05/09 13:17:55;;;;;;;5.90;3.00;;;;;;;20.87;32.62;100976.29;214731;1274;140671;-69
2022/05/09 13:23:00;;;;;;;2.40;2.20;;;;;;;20.95;32.78;100968.69;213976;1274;162860;-68
2022/05/09 13:28:06;;;;;;;10.70;2.00;;;;;;;20.94;32.70;100957.30;214812;1274;141461;-70
2022/05/09 13:33:18;;;;;;;2.40;2.20;;;;;;;20.72;32.71;100959.35;215033;1274;140426;-67
2022/05/09 13:38:42;;;;;;;7.20;2.50;;;;;;;20.62;32.76;100951.38;214156;1274;142168;-68
2022/05/09 13:43:52;;;;;;;3.40;2.20;;;;;;;20.57;32.53;100949.91;213656;1274;141024;-68
2022/05/09 13:48:58;;;;;;;3.60;1.20;;;;;;;20.50;32.53;100944.66;213861;1274;141196;-68
2022/05/09 13:54:06;;;;;;;2.70;1.70;;;;;;;20.45;32.55;100936.27;215760;1274;142763;-69
2022/05/09 13:59:09;;;;;;;3.20;1.70;;;;;;;20.40;32.48;100924.04;214735;1274;140253;-69
2022/05/09 14:04:16;;;;;;;4.80;2.00;;;;;;;20.33;32.32;100923.14;215018;1274;140396;-68
2022/05/09 14:09:23;;;;;;;9.20;1.60;;;;;;;20.25;32.50;100917.21;214448;1274;140639;-68
2022/05/09 14:14:39;;;;;;;14.70;2.20;;;;;;;20.28;32.35;100909.96;214664;1274;140548;-67
2022/05/09 14:19:42;;;;;;;6.00;2.10;;;;;;;20.30;32.23;100909.80;215805;1274;141269;-67
2022/05/09 14:30:32;;;;;;;3.60;2.00;;;;;;;20.25;31.91;100899.77;215820;1274;140227;-67
2022/05/09 14:35:41;;;;;;;5.20;2.50;;;;;;;20.24;31.95;100891.77;215859;1274;141520;-68
2022/05/09 14:40:47;;;;;;;2.50;1.40;;;;;;;20.16;31.81;100891.77;215360;1274;140026;-67
2022/05/09 14:46:02;;;;;;;2.50;1.70;;;;;;;19.89;31.64;100893.36;214767;1273;141430;-66
2022/05/09 14:51:05;;;;;;;5.60;1.70;;;;;;;19.72;31.82;100893.65;213226;1274;140455;-66
2022/05/09 15:02:02;;;;;;;3.40;1.50;;;;;;;19.55;31.71;100892.39;213539;1274;140941;-67
2022/05/09 15:07:06;;;;;;;11.40;1.80;;;;;;;19.55;31.84;100884.59;213907;1274;140847;-66
2022/05/09 15:12:26;;;;;;;12.00;3.30;;;;;;;19.53;31.43;100880.69;214942;1274;140333;-65
2022/05/09 15:17:29;;;;;;;5.00;1.80;;;;;;;19.53;31.47;100876.36;214306;1274;139929;-67
2022/05/09 15:22:33;;;;;;;1.70;1.60;;;;;;;19.44;31.52;100874.18;214167;1274;141258;-65
2022/05/09 15:27:38;;;;;;;2.90;1.70;;;;;;;19.30;31.37;100871.42;214196;1274;140332;-66
2022/05/09 15:32:41;;;;;;;6.60;1.20;;;;;;;19.13;31.61;100865.20;214250;1274;140231;-65
2022/05/09 15:37:45;;;;;;;5.00;2.50;;;;;;;19.06;31.71;100862.62;213171;1274;140819;-66
2022/05/09 15:42:49;;;;;;;4.20;1.80;;;;;;;19.01;32.04;100861.73;213273;1274;139690;-66
2022/05/09 15:47:53;;;;;;;3.80;1.80;;;;;;;18.93;32.17;100859.42;214737;1274;141001;-67
2022/05/09 15:52:59;;;;;;;2.00;1.50;;;;;;;18.72;31.97;100864.18;213559;1274;141489;-65
2022/05/09 15:58:02;;;;;;;2.20;1.30;;;;;;;18.53;32.07;100865.55;214736;1274;143226;-66
2022/05/09 16:03:07;;;;;;;1.30;1.20;;;;;;;18.31;31.97;100860.19;213279;1274;142006;-63
2022/05/09 16:13:32;;;;;;;5.10;1.90;;;;;;;18.08;32.65;100858.39;215197;1274;146051;-65
2022/05/09 16:18:36;;;;;;;8.30;1.20;;;;;;;18.02;33.07;100858.13;212940;1274;141219;-66
2022/05/09 16:23:39;;;;;;;1.70;1.10;;;;;;;17.99;33.06;100856.27;214800;1274;141757;-65
2022/05/09 16:28:47;;;;;;;6.50;1.70;;;;;;;17.97;33.31;100858.63;215094;1274;141442;-66
2022/05/09 16:33:54;;;;;;;4.30;1.30;;;;;;;17.95;32.99;100854.83;215754;1274;140052;-65
2022/05/09 16:38:57;;;;;;;1.30;1.20;;;;;;;17.84;32.92;100851.20;215038;1274;139939;-63
2022/05/09 16:44:02;;;;;;;3.10;1.30;;;;;;;17.72;33.14;100850.55;214577;1274;141840;-63
2022/05/09 16:49:06;;;;;;;6.80;3.40;;;;;;;17.54;32.97;100851.58;213718;1274;141281;-66
2022/05/09 16:54:09;;;;;;;4.20;1.70;;;;;;;17.42;32.98;100853.06;214220;1274;142296;-66
2022/05/09 16:59:14;;;;;;;1.30;1.10;;;;;;;17.28;33.22;100856.52;215275;1274;141368;-67
2022/05/09 17:04:16;;;;;;;1.60;1.00;;;;;;;17.13;33.36;100857.90;215044;1274;141594;-66
2022/05/09 17:09:19;;;;;;;3.00;1.60;;;;;;;17.01;33.48;100856.67;215018;1274;140730;-69
2022/05/09 17:14:22;;;;;;;6.80;1.10;;;;;;;16.92;33.54;100858.33;214760;1274;139876;-66
2022/05/09 17:19:25;;;;;;;0.80;0.80;;;;;;;16.78;33.56;100859.81;213600;1274;140169;-67
2022/05/09 17:24:31;;;;;;;3.60;1.00;;;;;;;16.64;33.81;100860.63;213643;1274;140099;-67
2022/05/09 17:29:36;;;;;;;4.10;1.30;;;;;;;16.49;33.93;100861.30;214179;1274;142142;-68
2022/05/09 17:34:38;;;;;;;7.40;1.50;;;;;;;16.37;34.27;100862.19;213804;1274;140047;-67
2022/05/09 17:39:41;;;;;;;1.50;1.30;;;;;;;16.24;34.72;100865.31;214328;1274;139959;-67
2022/05/09 17:44:44;;;;;;;13.50;1.30;;;;;;;16.12;34.98;100868.14;214194;1274;141102;-67
2022/05/09 17:49:47;;;;;;;3.00;1.00;;;;;;;15.99;35.20;100872.58;215330;1274;140372;-70
2022/05/09 17:54:50;;;;;;;6.70;1.40;;;;;;;15.85;35.31;100873.80;214283;1272;140108;-68
2022/05/09 17:59:53;;;;;;;2.00;1.50;;;;;;;15.73;35.55;100876.11;214555;1274;142210;-68
2022/05/09 18:04:57;;;;;;;2.60;1.30;;;;;;;15.59;35.63;100877.63;214849;1274;140016;-67
2022/05/09 18:10:00;;;;;;;1.40;1.20;;;;;;;15.44;35.97;100878.44;214928;1274;140602;-68
2022/05/09 18:15:08;;;;;;;6.60;1.20;;;;;;;15.30;35.93;100880.88;215050;1274;140108;-68
2022/05/09 18:20:19;;;;;;;3.70;1.50;;;;;;;15.16;36.28;100881.58;213178;1274;139835;-67
2022/05/09 18:25:32;;;;;;;14.50;1.90;;;;;;;14.99;36.59;100879.72;216039;1274;140614;-69
2022/05/09 18:30:37;;;;;;;2.90;1.90;;;;;;;14.81;37.76;100883.70;215717;1274;141397;-68
2022/05/09 18:35:43;;;;;;;4.10;1.40;;;;;;;14.58;38.67;100881.80;215813;1274;140507;-68
2022/05/09 18:40:46;;;;;;;5.90;2.00;;;;;;;14.32;39.25;100888.88;214456;1274;140192;-67
2022/05/09 18:45:48;;;;;;;4.10;1.30;;;;;;;14.08;39.93;100890.09;214622;1274;139641;-68
2022/05/09 18:56:13;;;;;;;3.70;2.60;;;;;;;13.62;41.48;100891.45;213394;1274;141450;-68
2022/05/09 19:01:16;;;;;;;3.20;2.00;;;;;;;13.39;41.51;100892.41;213765;1276;139826;-68
2022/05/09 19:06:25;;;;;;;3.20;2.20;;;;;;;13.16;42.04;100893.73;214271;1276;141123;-68
2022/05/09 19:11:32;;;;;;;2.70;2.00;;;;;;;12.95;42.81;100897.27;213084;1274;140658;-68
2022/05/09 19:16:37;;;;;;;3.00;2.30;;;;;;;12.75;43.48;100899.38;213758;1274;140498;-67
2022/05/09 19:21:40;;;;;;;6.70;2.10;;;;;;;12.53;43.62;100896.93;213351;1274;141731;-68
2022/05/09 19:26:44;;;;;;;11.50;2.10;;;;;;;12.34;43.92;100899.15;213582;1274;140565;-68
2022/05/09 19:31:47;;;;;;;2.10;1.70;;;;;;;12.16;44.11;100902.88;213225;1274;140658;-68
2022/05/09 19:36:49;;;;;;;3.20;1.90;;;;;;;11.96;44.46;100903.30;213983;1274;140287;-68
2022/05/09 19:41:54;;;;;;;10.90;2.90;;;;;;;11.75;44.50;100902.20;214746;1274;140646;-68
2022/05/09 19:46:57;;;;;;;3.50;2.50;;;;;;;11.60;45.08;100906.88;213084;1274;706484;-68
2022/05/09 19:57:21;;;;;;;3.90;1.50;;;;;;;11.30;45.86;100904.48;214112;1274;141639;-68
2022/05/09 20:02:26;;;;;;;3.20;3.00;;;;;;;11.15;46.23;100902.33;214412;1274;140822;-68
2022/05/09 20:07:29;;;;;;;13.00;3.40;;;;;;;11.01;46.99;100899.66;214471;1274;141326;-69
2022/05/09 20:12:33;;;;;;;3.60;2.20;;;;;;;10.86;47.51;100903.17;213535;1274;141324;-68
2022/05/09 20:17:36;;;;;;;2.20;2.00;;;;;;;10.73;48.33;100909.92;215676;1274;142093;-69
2022/05/09 20:22:40;;;;;;;2.70;2.20;;;;;;;10.59;48.55;100909.27;215898;1274;140367;-70
2022/05/09 20:33:04;;;;;;;3.30;3.00;;;;;;;10.38;48.27;100918.52;213314;1273;141834;-69
2022/05/09 20:38:06;;;;;;;4.80;2.50;;;;;;;10.27;48.71;100921.94;214809;1274;144802;-68
2022/05/09 20:43:12;;;;;;;6.30;2.20;;;;;;;10.14;48.97;100921.81;214239;1274;140908;-68
2022/05/09 20:48:14;;;;;;;4.20;2.80;;;;;;;10.02;49.35;100922.86;213494;1274;141371;-68
2022/05/09 20:53:20;;;;;;;5.60;2.60;;;;;;;9.92;49.28;100921.24;214747;1274;140813;-68
2022/05/09 20:58:26;;;;;;;4.10;3.20;;;;;;;9.83;49.51;100922.28;213263;1275;141348;-67
2022/05/09 21:03:32;;;;;;;7.90;6.40;;;;;;;9.67;49.99;100921.10;214597;1276;142524;-68
2022/05/09 21:08:35;;;;;;;13.90;4.80;;;;;;;9.50;50.69;100916.58;214440;1276;140773;-67
2022/05/09 21:13:39;;;;;;;14.10;2.80;;;;;;;9.38;50.81;100924.17;213915;1276;142288;-67
2022/05/09 21:18:43;;;;;;;3.50;2.80;;;;;;;9.23;51.63;100925.48;214173;1274;141440;-68
2022/05/09 21:23:50;;;;;;;4.70;3.60;;;;;;;9.09;52.03;100919.86;213715;1274;141565;-66
2022/05/09 21:28:55;;;;;;;5.40;2.50;;;;;;;8.95;52.36;100925.11;213971;1275;140483;-66
2022/05/09 21:33:58;;;;;;;4.90;3.60;;;;;;;8.82;52.67;100922.59;214767;1274;140630;-67
2022/05/09 21:44:26;;;;;;;4.40;2.90;;;;;;;8.61;54.01;100918.78;213833;1274;204796;-67
2022/05/09 21:49:37;;;;;;;9.40;3.40;;;;;;;8.52;54.52;100916.98;214556;1274;140009;-67
2022/05/09 21:54:43;;;;;;;6.80;3.00;;;;;;;8.42;54.40;100919.59;214803;1274;141251;-67
2022/05/09 21:59:49;;;;;;;9.60;3.90;;;;;;;8.32;55.02;100921.23;215613;1274;139832;-69
2022/05/09 22:04:52;;;;;;;4.80;2.70;;;;;;;8.15;54.95;100930.23;215499;1274;141415;-67
2022/05/09 22:09:56;;;;;;;7.00;4.30;;;;;;;8.01;55.79;100926.11;214855;1274;140172;-68
2022/05/09 22:14:59;;;;;;;6.70;3.70;;;;;;;7.92;55.64;100927.86;215843;1274;139782;-67
2022/05/09 22:20:02;;;;;;;3.90;3.20;;;;;;;7.81;56.13;100925.62;216120;1274;140412;-68
2022/05/09 22:25:10;;;;;;;12.80;3.60;;;;;;;7.58;56.49;100925.07;216091;1274;139991;-68
2022/05/09 22:30:14;;;;;;;;;;;;;;;7.44;57.08;100927.30;215243;1274;140939;-66
2022/05/09 22:35:17;;;;;;;6.40;3.30;;;;;;;7.34;57.19;100923.14;215933;1274;190248;-67
2022/05/09 22:40:22;;;;;;;8.70;4.70;;;;;;;7.20;57.58;100919.12;214939;1274;139570;-67
2022/05/09 22:45:30;;;;;;;7.80;3.10;;;;;;;7.08;57.93;100911.12;214997;1274;140779;-67
2022/05/09 22:50:33;;;;;;;5.00;3.60;;;;;;;7.05;57.94;100908.88;214899;1274;139541;-67
2022/05/09 22:55:37;;;;;;;4.20;3.50;;;;;;;6.99;58.09;100907.45;214566;1274;139679;-66
2022/05/09 23:00:40;;;;;;;7.50;4.40;;;;;;;6.92;58.64;100909.11;213747;1274;139537;-69
2022/05/09 23:05:43;;;;;;;3.60;2.40;;;;;;;6.84;58.76;100909.60;214747;1274;140210;-66
2022/05/09 23:10:47;;;;;;;4.40;2.40;;;;;;;6.64;59.01;100906.73;214459;1274;139402;-67
2022/05/09 23:15:52;;;;;;;7.30;3.30;;;;;;;6.45;59.15;100904.02;214063;1274;139844;-68
2022/05/09 23:20:55;;;;;;;5.80;3.10;;;;;;;6.27;59.38;100901.13;213490;1274;140668;-67
2022/05/09 23:25:59;;;;;;;4.40;2.90;;;;;;;6.22;59.93;100903.31;213868;1274;140114;-67
2022/05/09 23:31:03;;;;;;;7.00;3.30;;;;;;;6.14;60.02;100898.05;213543;1274;141525;-67
2022/05/09 23:36:08;;;;;;;8.40;3.60;;;;;;;6.01;60.46;100892.21;214253;1274;139806;-67
2022/05/09 23:41:21;;;;;;;5.00;3.00;;;;;;;5.98;60.99;100893.45;214531;1274;139898;-69
2022/05/09 23:46:27;;;;;;;2.90;2.40;;;;;;;5.86;60.83;100889.14;213319;1274;139496;-67
2022/05/09 23:51:32;;;;;;;7.30;3.40;;;;;;;5.81;61.43;100892.91;214856;1274;139628;-67
2022/05/09 23:56:36;;;;;;;6.40;3.30;;;;;;;5.76;61.03;100892.45;215146;1274;139837;-67
